createdAt,value
2022-08-18T00:03:57.318Z,19.40
2022-08-18T00:06:23.959Z,19.40
2022-08-18T00:08:59.928Z,19.40
2022-08-18T00:11:41.324Z,19.40
2022-08-18T00:14:22.483Z,19.50
2022-08-18T00:16:54.584Z,19.50
2022-08-18T00:19:46.593Z,19.50
2022-08-18T00:22:15.414Z,19.50
2022-08-18T00:24:48.393Z,19.50
2022-08-18T00:27:22.985Z,19.50
2022-08-18T00:29:56.244Z,19.50
2022-08-18T00:32:27.244Z,19.50
2022-08-18T00:34:54.884Z,19.50
2022-08-18T00:37:23.854Z,19.50
2022-08-18T00:39:53.071Z,19.50
2022-08-18T00:42:30.486Z,19.40
2022-08-18T00:45:02.571Z,19.40
2022-08-18T00:47:36.456Z,19.40
2022-08-18T00:50:19.210Z,19.40
2022-08-18T00:52:54.345Z,19.40
2022-08-18T00:55:22.919Z,19.40
2022-08-18T00:59:44.975Z,19.40
2022-08-18T01:02:20.325Z,19.40
2022-08-18T01:04:48.085Z,19.40
2022-08-18T01:07:31.851Z,19.40
2022-08-18T01:10:00.577Z,19.40
2022-08-18T01:12:45.874Z,19.40
2022-08-18T01:15:29.292Z,19.40
2022-08-18T01:18:25.380Z,19.40
2022-08-18T01:21:33.112Z,19.40
2022-08-18T01:24:05.040Z,19.40
2022-08-18T01:26:35.241Z,19.40
2022-08-18T01:29:18.599Z,19.40
2022-08-18T01:31:55.682Z,19.40
2022-08-18T01:34:26.462Z,19.40
2022-08-18T01:36:55.111Z,19.40
2022-08-18T01:40:59.809Z,19.40
2022-08-18T01:42:12.397Z,19.50
2022-08-18T01:44:43.369Z,19.50
2022-08-18T01:47:12.910Z,19.50
2022-08-18T01:49:43.989Z,19.50
2022-08-18T01:52:21.322Z,19.50
2022-08-18T01:54:50.303Z,19.60
2022-08-18T01:57:19.204Z,19.50
2022-08-18T01:59:47.253Z,19.50
2022-08-18T02:02:25.082Z,19.60
2022-08-18T02:05:01.068Z,19.50
2022-08-18T02:07:36.012Z,19.50
2022-08-18T02:10:11.801Z,19.50
2022-08-18T02:12:41.094Z,19.50
2022-08-18T02:15:09.718Z,19.50
2022-08-18T02:17:41.983Z,19.50
2022-08-18T02:20:12.979Z,19.50
2022-08-18T02:22:41.231Z,19.50
2022-08-18T02:25:09.927Z,19.50
2022-08-18T02:29:05.343Z,19.40
2022-08-18T02:31:33.032Z,19.40
2022-08-18T02:34:02.367Z,19.50
2022-08-18T02:36:29.822Z,19.50
2022-08-18T02:38:59.937Z,19.40
2022-08-18T02:41:29.652Z,19.40
2022-08-18T02:43:59.659Z,19.40
2022-08-18T02:46:29.722Z,19.40
2022-08-18T02:49:05.612Z,19.40
2022-08-18T02:51:33.331Z,19.40
2022-08-18T02:54:01.110Z,19.30
2022-08-18T02:56:40.222Z,19.30
2022-08-18T02:59:18.025Z,19.30
2022-08-18T03:01:47.830Z,19.20
2022-08-18T03:04:28.097Z,19.20
2022-08-18T03:06:56.955Z,19.20
2022-08-18T03:09:24.888Z,19.30
2022-08-18T03:11:53.694Z,19.30
2022-08-18T03:14:21.385Z,19.30
2022-08-18T03:16:54.119Z,19.30
2022-08-18T03:19:30.038Z,19.30
2022-08-18T03:22:03.006Z,19.30
2022-08-18T03:24:33.182Z,19.30
2022-08-18T03:27:03.739Z,19.30
2022-08-18T03:29:32.706Z,19.30
2022-08-18T03:32:02.848Z,19.40
2022-08-18T03:34:32.273Z,19.30
2022-08-18T03:37:03.108Z,19.30
2022-08-18T03:39:34.154Z,19.40
2022-08-18T03:42:03.198Z,19.40
2022-08-18T03:44:37.238Z,19.40
2022-08-18T03:47:09.308Z,19.40
2022-08-18T03:49:38.297Z,19.40
2022-08-18T03:52:10.478Z,19.40
2022-08-18T03:54:39.370Z,19.30
2022-08-18T03:57:12.487Z,19.30
2022-08-18T03:59:43.813Z,19.30
2022-08-18T04:02:13.080Z,19.30
2022-08-18T04:04:42.866Z,19.30
2022-08-18T04:07:13.611Z,19.30
2022-08-18T04:09:42.070Z,19.30
2022-08-18T04:12:17.025Z,19.30
2022-08-18T04:14:48.602Z,19.30
2022-08-18T04:17:25.420Z,19.20
2022-08-18T04:19:54.776Z,19.30
2022-08-18T04:22:23.025Z,19.30
2022-08-18T04:24:50.935Z,19.20
2022-08-18T04:27:20.236Z,19.20
2022-08-18T04:29:48.260Z,19.20
2022-08-18T04:32:16.289Z,19.30
2022-08-18T04:34:43.678Z,19.30
2022-08-18T04:37:11.243Z,19.30
2022-08-18T04:39:38.924Z,19.30
2022-08-18T04:42:06.375Z,19.20
2022-08-18T04:44:35.331Z,19.20
2022-08-18T04:47:05.548Z,19.20
2022-08-18T04:49:34.170Z,19.20
2022-08-18T04:52:38.717Z,19.20
2022-08-18T04:55:09.628Z,19.20
2022-08-18T04:57:37.877Z,19.20
2022-08-18T05:00:07.095Z,19.20
2022-08-18T05:02:35.214Z,19.20
2022-08-18T05:05:04.497Z,19.20
2022-08-18T05:07:33.087Z,19.20
2022-08-18T05:10:02.826Z,19.20
2022-08-18T05:12:31.094Z,19.30
2022-08-18T05:14:58.610Z,19.30
2022-08-18T05:17:30.211Z,19.30
2022-08-18T05:20:02.097Z,19.30
2022-08-18T05:22:32.185Z,19.30
2022-08-18T05:25:01.104Z,19.30
2022-08-18T05:27:33.955Z,19.30
2022-08-18T05:30:04.546Z,19.40
2022-08-18T05:32:47.364Z,19.40
2022-08-18T05:35:42.971Z,19.40
2022-08-18T05:38:14.178Z,19.40
2022-08-18T05:40:42.944Z,19.40
2022-08-18T05:43:11.358Z,19.40
2022-08-18T05:45:41.679Z,19.40
2022-08-18T05:48:09.260Z,19.40
2022-08-18T05:50:38.391Z,19.40
2022-08-18T05:53:15.366Z,19.40
2022-08-18T05:56:23.459Z,19.40
2022-08-18T05:58:55.898Z,19.40
2022-08-18T06:01:46.151Z,19.40
2022-08-18T06:04:56.428Z,19.40
2022-08-18T06:07:36.470Z,19.30
2022-08-18T06:10:07.130Z,19.40
2022-08-18T06:12:46.628Z,19.40
2022-08-18T06:15:24.744Z,19.40
2022-08-18T06:18:04.984Z,19.40
2022-08-18T06:20:42.510Z,19.30
2022-08-18T06:23:32.860Z,19.40
2022-08-18T06:26:40.439Z,19.50
2022-08-18T06:29:16.510Z,19.60
2022-08-18T06:32:11.672Z,19.70
2022-08-18T06:35:08.517Z,19.70
2022-08-18T06:38:18.058Z,19.70
2022-08-18T06:40:48.803Z,19.80
2022-08-18T06:43:17.382Z,19.90
2022-08-18T06:45:52.444Z,20.00
2022-08-18T06:48:43.173Z,20.00
2022-08-18T06:51:20.157Z,20.10
2022-08-18T06:53:55.337Z,20.10
2022-08-18T06:56:25.973Z,20.10
2022-08-18T06:58:56.102Z,20.10
2022-08-18T07:01:25.551Z,20.20
2022-08-18T07:03:56.662Z,20.20
2022-08-18T07:06:27.297Z,20.20
2022-08-18T07:09:15.736Z,20.20
2022-08-18T07:12:01.911Z,20.30
2022-08-18T07:14:29.277Z,20.40
2022-08-18T07:17:19.380Z,20.40
2022-08-18T07:19:59.563Z,20.50
2022-08-18T07:22:29.964Z,20.60
2022-08-18T07:25:07.149Z,20.70
2022-08-18T07:27:49.468Z,20.70
2022-08-18T07:30:19.711Z,20.70
2022-08-18T07:33:05.418Z,20.80
2022-08-18T07:36:07.161Z,20.90
2022-08-18T07:38:47.150Z,20.90
2022-08-18T07:41:26.915Z,21.00
2022-08-18T07:43:57.431Z,21.10
2022-08-18T07:46:37.384Z,21.20
2022-08-18T07:49:07.787Z,21.20
2022-08-18T07:51:53.212Z,21.20
2022-08-18T07:54:49.559Z,21.30
2022-08-18T07:57:42.680Z,21.40
2022-08-18T08:00:57.672Z,21.50
2022-08-18T08:03:34.464Z,21.50
2022-08-18T08:06:14.974Z,21.50
2022-08-18T08:08:43.793Z,21.70
2022-08-18T08:11:35.673Z,21.80
2022-08-18T08:14:04.993Z,21.80
2022-08-18T08:17:04.721Z,21.80
2022-08-18T08:19:59.085Z,21.90
2022-08-18T08:22:28.621Z,22.10
2022-08-18T08:25:45.080Z,22.20
2022-08-18T08:28:34.502Z,22.30
2022-08-18T08:31:39.435Z,22.40
2022-08-18T08:34:34.515Z,22.40
2022-08-18T08:37:05.668Z,22.60
2022-08-18T08:39:40.334Z,22.80
2022-08-18T08:42:31.596Z,23.00
2022-08-18T08:45:11.379Z,23.20
2022-08-18T08:48:08.158Z,23.30
2022-08-18T08:50:47.358Z,23.20
2022-08-18T08:53:29.903Z,23.30
2022-08-18T08:56:07.952Z,23.40
2022-08-18T08:58:44.978Z,23.60
2022-08-18T09:01:27.185Z,23.70
2022-08-18T09:04:03.467Z,23.80
2022-08-18T09:06:52.511Z,23.70
2022-08-18T09:09:26.730Z,23.80
2022-08-18T09:12:29.308Z,23.90
2022-08-18T09:15:24.616Z,23.90
2022-08-18T09:18:34.774Z,24.20
2022-08-18T09:21:20.634Z,24.30
2022-08-18T09:23:52.761Z,24.70
2022-08-18T09:26:39.345Z,24.90
2022-08-18T09:29:23.703Z,25.20
2022-08-18T09:32:20.353Z,25.30
2022-08-18T09:35:11.573Z,25.50
2022-08-18T09:37:45.134Z,25.30
2022-08-18T09:43:39.510Z,25.10
2022-08-18T09:46:09.688Z,25.10
2022-08-18T09:51:36.225Z,25.20
2022-08-18T09:54:13.583Z,25.20
2022-08-18T09:59:37.959Z,25.40
2022-08-18T10:02:36.825Z,25.60
2022-08-18T10:05:17.456Z,26.00
2022-08-18T10:08:08.312Z,26.20
2022-08-18T10:11:01.173Z,26.40
2022-08-18T10:13:49.499Z,26.70
2022-08-18T10:19:50.309Z,27.30
2022-08-18T10:22:43.949Z,27.60
2022-08-18T10:25:22.960Z,27.80
2022-08-18T10:27:57.471Z,27.50
2022-08-18T10:30:36.260Z,27.30
2022-08-18T10:33:57.162Z,27.00
2022-08-18T10:37:12.456Z,26.80
2022-08-18T10:40:13.105Z,26.60
2022-08-18T10:42:49.634Z,26.60
2022-08-18T10:45:24.509Z,26.50
2022-08-18T10:48:24.467Z,26.40
2022-08-18T10:51:21.627Z,26.40
2022-08-18T10:54:18.450Z,26.50
2022-08-18T10:56:58.469Z,26.60
2022-08-18T10:59:52.246Z,26.50
2022-08-18T11:02:31.144Z,26.60
2022-08-18T11:04:59.924Z,27.00
2022-08-18T11:07:33.972Z,27.10
2022-08-18T11:10:57.279Z,27.20
2022-08-18T11:13:45.678Z,27.30
2022-08-18T11:16:37.182Z,27.80
2022-08-18T11:19:13.179Z,27.80
2022-08-18T11:21:51.242Z,28.10
2022-08-18T11:24:25.985Z,28.40
2022-08-18T11:27:17.557Z,28.50
2022-08-18T11:29:46.812Z,28.60
2022-08-18T11:32:24.189Z,28.90
2022-08-18T11:35:10.789Z,29.10
2022-08-18T11:37:55.218Z,29.20
2022-08-18T11:41:08.775Z,29.50
2022-08-18T11:46:42.975Z,29.30
2022-08-18T11:49:28.581Z,29.20
2022-08-18T11:52:26.316Z,29.00
2022-08-18T11:55:14.563Z,28.80
2022-08-18T11:57:59.682Z,28.60
2022-08-18T12:00:42.635Z,28.30
2022-08-18T12:03:20.129Z,28.10
2022-08-18T12:05:56.873Z,27.90
2022-08-18T12:08:58.177Z,27.80
2022-08-18T12:11:29.181Z,27.90
2022-08-18T12:14:32.209Z,27.70
2022-08-18T12:17:03.418Z,27.70
2022-08-18T12:19:34.371Z,27.70
2022-08-18T12:22:14.004Z,27.60
2022-08-18T12:24:42.094Z,27.50
2022-08-18T12:27:20.904Z,27.40
2022-08-18T12:29:52.440Z,27.50
2022-08-18T12:35:11.776Z,28.20
2022-08-18T12:38:03.324Z,28.80
2022-08-18T12:40:31.291Z,29.00
2022-08-18T12:42:58.932Z,28.70
2022-08-18T12:45:28.957Z,28.60
2022-08-18T12:47:57.021Z,28.70
2022-08-18T12:50:31.160Z,28.80
2022-08-18T12:53:02.036Z,28.90
2022-08-18T12:55:35.299Z,28.90
2022-08-18T12:58:06.334Z,28.90
2022-08-18T13:00:35.119Z,28.90
2022-08-18T13:03:03.826Z,29.00
2022-08-18T13:05:31.887Z,29.00
2022-08-18T13:08:05.832Z,28.80
2022-08-18T13:10:43.226Z,28.60
2022-08-18T13:13:19.118Z,28.60
2022-08-18T13:15:57.929Z,28.60
2022-08-18T13:18:27.223Z,28.50
2022-08-18T13:20:58.516Z,28.30
2022-08-18T13:23:27.760Z,28.20
2022-08-18T13:26:01.690Z,27.90
2022-08-18T13:28:36.095Z,27.80
2022-08-18T13:31:20.512Z,27.60
2022-08-18T13:33:59.466Z,27.70
2022-08-18T13:36:46.235Z,27.80
2022-08-18T13:39:33.610Z,27.80
2022-08-18T13:42:21.752Z,27.90
2022-08-18T13:44:53.122Z,27.80
2022-08-18T13:47:22.589Z,27.80
2022-08-18T13:49:58.050Z,27.70
2022-08-18T13:52:34.154Z,27.60
2022-08-18T13:55:08.537Z,27.40
2022-08-18T13:57:40.149Z,27.20
2022-08-18T14:00:18.509Z,27.00
2022-08-18T14:02:57.326Z,27.00
2022-08-18T14:05:51.107Z,26.90
2022-08-18T14:08:18.909Z,26.80
2022-08-18T14:10:51.223Z,26.90
2022-08-18T14:13:24.743Z,27.00
2022-08-18T14:15:55.959Z,27.00
2022-08-18T14:18:29.159Z,27.00
2022-08-18T14:21:22.981Z,27.00
2022-08-18T14:24:14.286Z,27.10
2022-08-18T14:26:50.536Z,27.30
2022-08-18T14:29:46.511Z,27.30
2022-08-18T14:32:07.241Z,27.20
2022-08-18T14:34:38.060Z,27.30
2022-08-18T14:37:17.741Z,27.50
2022-08-18T14:39:47.929Z,27.60
2022-08-18T14:42:19.472Z,27.60
2022-08-18T14:45:17.924Z,27.60
2022-08-18T14:47:50.308Z,27.40
2022-08-18T14:50:19.478Z,27.30
2022-08-18T14:52:51.178Z,27.20
2022-08-18T14:55:19.301Z,27.10
2022-08-18T14:57:47.953Z,27.10
2022-08-18T15:00:17.984Z,27.00
2022-08-18T15:02:53.601Z,27.10
2022-08-18T15:05:24.729Z,27.00
2022-08-18T15:07:53.418Z,27.10
2022-08-18T15:10:23.557Z,27.10
2022-08-18T15:12:57.902Z,27.10
2022-08-18T15:15:26.006Z,27.00
2022-08-18T15:17:53.838Z,27.00
2022-08-18T15:20:29.131Z,27.00
2022-08-18T15:23:27.987Z,26.80
2022-08-18T15:25:56.786Z,26.80
2022-08-18T15:28:28.235Z,26.70
2022-08-18T15:33:42.886Z,26.50
2022-08-18T15:36:10.696Z,26.40
2022-08-18T15:38:43.948Z,26.30
2022-08-18T15:41:46.953Z,26.20
2022-08-18T15:44:22.668Z,26.20
2022-08-18T15:46:53.255Z,26.10
2022-08-18T15:49:21.773Z,26.10
2022-08-18T15:51:52.636Z,26.10
2022-08-18T15:54:20.878Z,26.10
2022-08-18T15:56:58.388Z,26.10
2022-08-18T15:59:39.659Z,26.10
2022-08-18T16:02:11.797Z,26.10
2022-08-18T16:04:47.256Z,26.10
2022-08-18T16:07:18.032Z,26.00
2022-08-18T16:10:02.786Z,25.90
2022-08-18T16:12:30.882Z,25.90
2022-08-18T16:14:59.673Z,25.80
2022-08-18T16:17:31.782Z,25.70
2022-08-18T16:20:00.072Z,25.70
2022-08-18T16:22:29.249Z,25.70
2022-08-18T16:24:56.489Z,25.70
2022-08-18T16:27:23.889Z,25.70
2022-08-18T16:29:53.847Z,25.70
2022-08-18T16:32:21.460Z,25.60
2022-08-18T16:34:50.166Z,25.60
2022-08-18T16:37:17.539Z,25.60
2022-08-18T16:39:44.884Z,25.70
2022-08-18T16:42:13.439Z,25.60
2022-08-18T16:44:40.906Z,25.70
2022-08-18T16:47:08.487Z,25.70
2022-08-18T16:49:36.430Z,25.70
2022-08-18T16:52:04.206Z,25.70
2022-08-18T16:54:33.665Z,25.70
2022-08-18T16:57:01.056Z,25.60
2022-08-18T16:59:47.020Z,25.50
2022-08-18T17:02:32.657Z,25.40
2022-08-18T17:05:02.790Z,25.40
2022-08-18T17:07:32.528Z,25.30
2022-08-18T17:10:01.088Z,25.30
2022-08-18T17:12:29.966Z,25.20
2022-08-18T17:15:02.943Z,25.20
2022-08-18T17:17:32.365Z,25.20
2022-08-18T17:20:01.101Z,25.10
2022-08-18T17:22:28.687Z,25.10
2022-08-18T17:25:04.038Z,25.00
2022-08-18T17:27:34.122Z,25.00
2022-08-18T17:30:16.959Z,25.00
2022-08-18T17:33:08.520Z,24.90
2022-08-18T17:35:42.744Z,24.80
2022-08-18T17:38:25.016Z,24.80
2022-08-18T17:40:55.097Z,24.80
2022-08-18T17:43:34.917Z,24.70
2022-08-18T17:46:10.203Z,24.70
2022-08-18T17:48:53.657Z,24.60
2022-08-18T17:51:39.580Z,24.60
2022-08-18T17:54:22.144Z,24.50
2022-08-18T17:56:58.835Z,24.50
2022-08-18T17:59:45.838Z,24.40
2022-08-18T18:02:30.675Z,24.30
2022-08-18T18:05:01.357Z,24.30
2022-08-18T18:07:36.156Z,24.30
2022-08-18T18:10:23.650Z,24.10
2022-08-18T18:13:33.399Z,24.10
2022-08-18T18:16:19.984Z,24.10
2022-08-18T18:19:00.204Z,24.00
2022-08-18T18:21:57.592Z,24.00
2022-08-18T18:24:24.068Z,24.00
2022-08-18T18:26:52.760Z,23.90
2022-08-18T18:29:38.287Z,23.90
2022-08-18T18:32:24.325Z,23.80
2022-08-18T18:35:27.513Z,23.70
2022-08-18T18:38:01.105Z,23.70
2022-08-18T18:40:40.624Z,23.60
2022-08-18T18:43:20.791Z,23.60
2022-08-18T18:46:25.717Z,23.50
2022-08-18T18:49:38.371Z,23.40
2022-08-18T18:52:30.922Z,23.40
2022-08-18T18:55:19.527Z,23.30
2022-08-18T18:58:02.691Z,23.20
2022-08-18T19:00:33.530Z,23.10
2022-08-18T19:03:16.142Z,23.00
2022-08-18T19:06:21.514Z,22.90
2022-08-18T19:09:03.475Z,22.80
2022-08-18T19:11:53.945Z,22.80
2022-08-18T19:14:25.001Z,22.70
2022-08-18T19:17:01.266Z,22.60
2022-08-18T19:19:47.353Z,22.60
2022-08-18T19:22:46.364Z,22.50
2022-08-18T19:25:35.615Z,22.40
2022-08-18T19:28:31.506Z,22.30
2022-08-18T19:31:09.781Z,22.20
2022-08-18T19:33:41.775Z,22.10
2022-08-18T19:36:44.744Z,22.00
2022-08-18T19:39:38.335Z,21.90
2022-08-18T19:42:14.842Z,21.80
2022-08-18T19:45:15.933Z,21.80
2022-08-18T19:48:02.883Z,21.70
2022-08-18T19:50:52.246Z,21.60
2022-08-18T19:53:40.048Z,21.60
2022-08-18T19:56:25.434Z,21.50
2022-08-18T19:59:17.982Z,21.40
2022-08-18T20:01:57.698Z,21.40
2022-08-18T20:05:03.939Z,21.30
2022-08-18T20:08:12.977Z,21.30
2022-08-18T20:11:18.897Z,21.20
2022-08-18T20:13:49.549Z,21.10
2022-08-18T20:16:43.186Z,21.10
2022-08-18T20:19:42.768Z,21.00
2022-08-18T20:22:32.738Z,20.90
2022-08-18T20:25:08.874Z,20.90
2022-08-18T20:27:51.741Z,20.80
2022-08-18T20:30:22.189Z,20.80
2022-08-18T20:33:27.969Z,20.80
2022-08-18T20:36:14.052Z,20.70
2022-08-18T20:38:41.715Z,20.70
2022-08-18T20:41:26.117Z,20.60
2022-08-18T20:44:02.574Z,20.60
2022-08-18T20:46:46.395Z,20.50
2022-08-18T20:49:34.422Z,20.50
2022-08-18T20:52:38.040Z,20.40
2022-08-18T20:55:11.754Z,20.30
2022-08-18T20:57:41.355Z,20.20
2022-08-18T21:00:26.822Z,20.20
2022-08-18T21:02:59.778Z,20.20
2022-08-18T21:05:38.961Z,20.20
2022-08-18T21:08:21.488Z,20.10
2022-08-18T21:10:56.936Z,20.10
2022-08-18T21:13:41.188Z,20.00
2022-08-18T21:16:33.754Z,20.00
2022-08-18T21:19:25.009Z,20.00
2022-08-18T21:21:56.674Z,19.90
2022-08-18T21:24:28.545Z,19.90
2022-08-18T21:27:01.349Z,19.90
2022-08-18T21:29:47.422Z,19.90
2022-08-18T21:32:31.241Z,19.80
2022-08-18T21:35:10.545Z,19.80
2022-08-18T21:37:41.788Z,19.70
2022-08-18T21:40:10.010Z,19.70
2022-08-18T21:42:44.492Z,19.60
2022-08-18T21:45:25.557Z,19.60
2022-08-18T21:47:56.996Z,19.60
2022-08-18T21:50:33.056Z,19.50
2022-08-18T21:53:05.490Z,19.50
2022-08-18T21:55:45.468Z,19.50
2022-08-18T21:58:17.303Z,19.50
2022-08-18T22:01:13.892Z,19.40
2022-08-18T22:03:52.207Z,19.40
2022-08-18T22:06:49.812Z,19.40
2022-08-18T22:09:38.823Z,19.30
2022-08-18T22:12:36.930Z,19.30
2022-08-18T22:15:17.755Z,19.20
2022-08-18T22:18:05.889Z,19.20
2022-08-18T22:20:57.898Z,19.10
2022-08-18T22:23:54.336Z,19.10
2022-08-18T22:26:29.604Z,19.10
2022-08-18T22:28:57.128Z,19.10
2022-08-18T22:31:26.969Z,19.00
2022-08-18T22:33:54.831Z,18.90
2022-08-18T22:36:29.769Z,19.00
2022-08-18T22:38:57.258Z,19.00
2022-08-18T22:41:25.783Z,18.90
2022-08-18T22:43:55.406Z,18.90
2022-08-18T22:46:24.939Z,18.90
2022-08-18T22:48:54.073Z,18.90
2022-08-18T22:51:24.353Z,18.80
2022-08-18T22:53:52.103Z,18.80
2022-08-18T22:56:33.898Z,18.70
2022-08-18T22:59:15.818Z,18.70
2022-08-18T23:01:49.470Z,18.70
2022-08-18T23:04:19.065Z,18.70
2022-08-18T23:06:51.924Z,18.60
2022-08-18T23:09:22.253Z,18.60
2022-08-18T23:11:50.591Z,18.60
2022-08-18T23:14:18.076Z,18.50
2022-08-18T23:16:45.618Z,18.50
2022-08-18T23:19:15.213Z,18.40
2022-08-18T23:21:43.687Z,18.40
2022-08-18T23:24:14.565Z,18.40
2022-08-18T23:26:42.609Z,18.40
2022-08-18T23:29:11.956Z,18.30
2022-08-18T23:31:41.928Z,18.30
2022-08-18T23:34:11.360Z,18.30
2022-08-18T23:36:43.657Z,18.30
2022-08-18T23:39:14.065Z,18.30
2022-08-18T23:41:41.715Z,18.30
2022-08-18T23:44:10.346Z,18.20
2022-08-18T23:46:38.128Z,18.20
2022-08-18T23:49:07.598Z,18.20
2022-08-18T23:51:51.579Z,18.20
2022-08-18T23:54:21.468Z,18.10
2022-08-18T23:56:49.668Z,18.10
2022-08-18T23:59:20.230Z,18.10
